sensor_id;sensor_type;location;lat;lon;timestamp;P1;durP1;ratioP1;P2;durP2;ratioP2
23290;SDS011;11814;44.686;10.842;2023-04-03T00:00:21;10.85;;;8.38;;
23290;SDS011;11814;44.686;10.842;2023-04-03T00:02:46;11.73;;;8.95;;
23290;SDS011;11814;44.686;10.842;2023-04-03T00:05:12;14.70;;;8.70;;
23290;SDS011;11814;44.686;10.842;2023-04-03T00:07:38;11.20;;;8.65;;
23290;SDS011;11814;44.686;10.842;2023-04-03T00:10:03;14.95;;;9.25;;
23290;SDS011;11814;44.686;10.842;2023-04-03T00:12:29;10.18;;;8.27;;
23290;SDS011;11814;44.686;10.842;2023-04-03T00:14:55;12.00;;;8.25;;
23290;SDS011;11814;44.686;10.842;2023-04-03T00:17:21;10.05;;;8.25;;
23290;SDS011;11814;44.686;10.842;2023-04-03T00:19:46;10.32;;;8.65;;
23290;SDS011;11814;44.686;10.842;2023-04-03T00:22:12;10.50;;;7.78;;
23290;SDS011;11814;44.686;10.842;2023-04-03T00:24:37;10.40;;;7.63;;
23290;SDS011;11814;44.686;10.842;2023-04-03T00:27:03;9.13;;;7.45;;
23290;SDS011;11814;44.686;10.842;2023-04-03T00:29:29;9.65;;;7.90;;
23290;SDS011;11814;44.686;10.842;2023-04-03T00:31:55;10.13;;;7.72;;
23290;SDS011;11814;44.686;10.842;2023-04-03T00:34:20;8.85;;;7.65;;
23290;SDS011;11814;44.686;10.842;2023-04-03T00:36:46;10.00;;;7.10;;
23290;SDS011;11814;44.686;10.842;2023-04-03T00:39:12;9.85;;;7.53;;
23290;SDS011;11814;44.686;10.842;2023-04-03T00:41:37;8.55;;;7.13;;
23290;SDS011;11814;44.686;10.842;2023-04-03T00:44:22;8.38;;;7.28;;
23290;SDS011;11814;44.686;10.842;2023-04-03T00:46:57;9.57;;;8.02;;
23290;SDS011;11814;44.686;10.842;2023-04-03T00:49:23;10.27;;;7.75;;
23290;SDS011;11814;44.686;10.842;2023-04-03T00:51:49;12.32;;;8.45;;
23290;SDS011;11814;44.686;10.842;2023-04-03T00:54:14;12.73;;;8.75;;
23290;SDS011;11814;44.686;10.842;2023-04-03T00:56:40;12.40;;;9.32;;
23290;SDS011;11814;44.686;10.842;2023-04-03T00:59:08;13.80;;;10.25;;
23290;SDS011;11814;44.686;10.842;2023-04-03T01:01:38;12.88;;;9.55;;
23290;SDS011;11814;44.686;10.842;2023-04-03T01:04:04;11.50;;;8.85;;
23290;SDS011;11814;44.686;10.842;2023-04-03T01:06:35;11.75;;;8.10;;
23290;SDS011;11814;44.686;10.842;2023-04-03T01:09:02;9.73;;;8.20;;
23290;SDS011;11814;44.686;10.842;2023-04-03T01:11:29;11.90;;;8.80;;
23290;SDS011;11814;44.686;10.842;2023-04-03T01:13:54;14.70;;;9.02;;
23290;SDS011;11814;44.686;10.842;2023-04-03T01:16:20;11.43;;;8.98;;
23290;SDS011;11814;44.686;10.842;2023-04-03T01:18:46;11.63;;;9.70;;
23290;SDS011;11814;44.686;10.842;2023-04-03T01:27:05;12.50;;;8.82;;
23290;SDS011;11814;44.686;10.842;2023-04-03T01:29:33;11.45;;;9.02;;
23290;SDS011;11814;44.686;10.842;2023-04-03T01:31:59;17.50;;;9.57;;
23290;SDS011;11814;44.686;10.842;2023-04-03T01:34:26;12.48;;;9.25;;
23290;SDS011;11814;44.686;10.842;2023-04-03T01:36:53;11.40;;;9.15;;
23290;SDS011;11814;44.686;10.842;2023-04-03T01:39:19;10.05;;;8.20;;
23290;SDS011;11814;44.686;10.842;2023-04-03T01:41:46;13.65;;;8.45;;
23290;SDS011;11814;44.686;10.842;2023-04-03T01:44:11;11.38;;;8.30;;
23290;SDS011;11814;44.686;10.842;2023-04-03T01:46:37;9.15;;;7.20;;
23290;SDS011;11814;44.686;10.842;2023-04-03T01:49:03;11.30;;;8.15;;
23290;SDS011;11814;44.686;10.842;2023-04-03T01:51:29;12.95;;;8.75;;
23290;SDS011;11814;44.686;10.842;2023-04-03T01:53:55;13.63;;;9.40;;
23290;SDS011;11814;44.686;10.842;2023-04-03T01:56:21;13.18;;;9.18;;
23290;SDS011;11814;44.686;10.842;2023-04-03T01:58:47;15.90;;;9.50;;
23290;SDS011;11814;44.686;10.842;2023-04-03T02:01:13;13.32;;;9.50;;
23290;SDS011;11814;44.686;10.842;2023-04-03T02:03:38;12.13;;;8.20;;
23290;SDS011;11814;44.686;10.842;2023-04-03T02:06:04;11.32;;;8.90;;
23290;SDS011;11814;44.686;10.842;2023-04-03T02:08:30;13.98;;;8.52;;
23290;SDS011;11814;44.686;10.842;2023-04-03T02:10:56;14.13;;;8.18;;
23290;SDS011;11814;44.686;10.842;2023-04-03T02:13:21;14.77;;;9.10;;
23290;SDS011;11814;44.686;10.842;2023-04-03T02:15:47;15.80;;;8.18;;
23290;SDS011;11814;44.686;10.842;2023-04-03T02:18:13;9.80;;;7.82;;
23290;SDS011;11814;44.686;10.842;2023-04-03T02:20:39;14.65;;;9.00;;
23290;SDS011;11814;44.686;10.842;2023-04-03T02:23:05;12.85;;;7.65;;
23290;SDS011;11814;44.686;10.842;2023-04-03T02:25:31;9.48;;;7.05;;
23290;SDS011;11814;44.686;10.842;2023-04-03T02:27:57;8.40;;;6.70;;
23290;SDS011;11814;44.686;10.842;2023-04-03T02:30:23;9.18;;;7.18;;
23290;SDS011;11814;44.686;10.842;2023-04-03T02:32:48;9.95;;;6.13;;
23290;SDS011;11814;44.686;10.842;2023-04-03T02:35:14;8.80;;;6.38;;
23290;SDS011;11814;44.686;10.842;2023-04-03T02:37:40;15.48;;;5.65;;
23290;SDS011;11814;44.686;10.842;2023-04-03T02:40:06;7.95;;;5.47;;
23290;SDS011;11814;44.686;10.842;2023-04-03T02:42:32;8.15;;;5.90;;
23290;SDS011;11814;44.686;10.842;2023-04-03T02:44:58;10.07;;;5.85;;
23290;SDS011;11814;44.686;10.842;2023-04-03T02:47:25;8.50;;;5.88;;
23290;SDS011;11814;44.686;10.842;2023-04-03T02:49:51;8.88;;;6.43;;
23290;SDS011;11814;44.686;10.842;2023-04-03T02:52:17;8.55;;;5.55;;
23290;SDS011;11814;44.686;10.842;2023-04-03T02:54:43;7.30;;;5.82;;
23290;SDS011;11814;44.686;10.842;2023-04-03T02:57:09;8.13;;;5.97;;
23290;SDS011;11814;44.686;10.842;2023-04-03T02:59:35;10.15;;;6.05;;
23290;SDS011;11814;44.686;10.842;2023-04-03T03:02:02;7.70;;;6.10;;
23290;SDS011;11814;44.686;10.842;2023-04-03T03:04:27;11.43;;;6.07;;
23290;SDS011;11814;44.686;10.842;2023-04-03T03:06:53;9.13;;;6.10;;
23290;SDS011;11814;44.686;10.842;2023-04-03T03:09:19;8.45;;;5.38;;
23290;SDS011;11814;44.686;10.842;2023-04-03T03:11:44;9.88;;;5.60;;
23290;SDS011;11814;44.686;10.842;2023-04-03T03:14:10;7.28;;;5.40;;
23290;SDS011;11814;44.686;10.842;2023-04-03T03:16:36;8.00;;;5.80;;
23290;SDS011;11814;44.686;10.842;2023-04-03T03:19:01;11.32;;;6.47;;
23290;SDS011;11814;44.686;10.842;2023-04-03T03:21:27;9.10;;;6.57;;
23290;SDS011;11814;44.686;10.842;2023-04-03T03:23:53;10.00;;;5.93;;
23290;SDS011;11814;44.686;10.842;2023-04-03T03:26:18;10.48;;;6.35;;
23290;SDS011;11814;44.686;10.842;2023-04-03T03:28:44;9.20;;;6.20;;
23290;SDS011;11814;44.686;10.842;2023-04-03T03:31:10;9.63;;;6.22;;
23290;SDS011;11814;44.686;10.842;2023-04-03T03:33:37;8.95;;;6.40;;
23290;SDS011;11814;44.686;10.842;2023-04-03T03:36:04;10.27;;;6.13;;
23290;SDS011;11814;44.686;10.842;2023-04-03T03:38:30;15.60;;;6.55;;
23290;SDS011;11814;44.686;10.842;2023-04-03T03:40:56;8.02;;;6.00;;
23290;SDS011;11814;44.686;10.842;2023-04-03T03:43:21;8.20;;;6.35;;
23290;SDS011;11814;44.686;10.842;2023-04-03T03:45:53;6.88;;;5.72;;
23290;SDS011;11814;44.686;10.842;2023-04-03T03:48:20;8.63;;;6.13;;
23290;SDS011;11814;44.686;10.842;2023-04-03T03:50:46;6.85;;;5.28;;
23290;SDS011;11814;44.686;10.842;2023-04-03T03:53:12;6.13;;;5.18;;
23290;SDS011;11814;44.686;10.842;2023-04-03T03:55:38;10.57;;;5.80;;
23290;SDS011;11814;44.686;10.842;2023-04-03T03:58:04;6.65;;;5.38;;
23290;SDS011;11814;44.686;10.842;2023-04-03T04:00:29;8.98;;;6.00;;
23290;SDS011;11814;44.686;10.842;2023-04-03T04:02:55;8.93;;;5.82;;
23290;SDS011;11814;44.686;10.842;2023-04-03T04:05:21;7.80;;;5.55;;
23290;SDS011;11814;44.686;10.842;2023-04-03T04:07:47;7.43;;;5.70;;
23290;SDS011;11814;44.686;10.842;2023-04-03T04:10:13;7.18;;;5.57;;
23290;SDS011;11814;44.686;10.842;2023-04-03T04:12:39;7.82;;;5.80;;
23290;SDS011;11814;44.686;10.842;2023-04-03T04:15:05;6.82;;;5.72;;
23290;SDS011;11814;44.686;10.842;2023-04-03T04:17:31;8.35;;;5.70;;
23290;SDS011;11814;44.686;10.842;2023-04-03T04:19:56;7.75;;;5.78;;
23290;SDS011;11814;44.686;10.842;2023-04-03T04:22:22;7.93;;;6.22;;
23290;SDS011;11814;44.686;10.842;2023-04-03T04:24:48;7.78;;;5.93;;
23290;SDS011;11814;44.686;10.842;2023-04-03T04:27:13;7.47;;;5.57;;
23290;SDS011;11814;44.686;10.842;2023-04-03T04:29:40;10.45;;;6.82;;
23290;SDS011;11814;44.686;10.842;2023-04-03T04:32:06;10.40;;;6.72;;
23290;SDS011;11814;44.686;10.842;2023-04-03T04:34:33;7.30;;;5.70;;
23290;SDS011;11814;44.686;10.842;2023-04-03T04:36:59;6.95;;;6.05;;
23290;SDS011;11814;44.686;10.842;2023-04-03T04:39:25;10.88;;;6.38;;
23290;SDS011;11814;44.686;10.842;2023-04-03T04:41:51;9.32;;;5.80;;
23290;SDS011;11814;44.686;10.842;2023-04-03T04:44:16;9.57;;;6.10;;
23290;SDS011;11814;44.686;10.842;2023-04-03T04:46:42;9.70;;;5.60;;
23290;SDS011;11814;44.686;10.842;2023-04-03T04:49:08;12.23;;;5.93;;
23290;SDS011;11814;44.686;10.842;2023-04-03T04:51:34;9.73;;;6.13;;
23290;SDS011;11814;44.686;10.842;2023-04-03T04:53:59;10.88;;;5.90;;
23290;SDS011;11814;44.686;10.842;2023-04-03T04:56:25;16.67;;;6.38;;
23290;SDS011;11814;44.686;10.842;2023-04-03T04:58:51;11.65;;;6.57;;
23290;SDS011;11814;44.686;10.842;2023-04-03T05:01:16;11.77;;;7.45;;
23290;SDS011;11814;44.686;10.842;2023-04-03T05:03:43;10.95;;;6.47;;
23290;SDS011;11814;44.686;10.842;2023-04-03T05:06:09;14.15;;;6.20;;
23290;SDS011;11814;44.686;10.842;2023-04-03T05:08:35;10.13;;;6.63;;
23290;SDS011;11814;44.686;10.842;2023-04-03T05:11:01;15.90;;;5.85;;
23290;SDS011;11814;44.686;10.842;2023-04-03T05:13:26;7.63;;;6.43;;
23290;SDS011;11814;44.686;10.842;2023-04-03T05:15:52;9.45;;;6.35;;
23290;SDS011;11814;44.686;10.842;2023-04-03T05:18:17;9.82;;;6.40;;
23290;SDS011;11814;44.686;10.842;2023-04-03T05:20:43;8.93;;;6.43;;
23290;SDS011;11814;44.686;10.842;2023-04-03T05:23:09;9.07;;;5.90;;
23290;SDS011;11814;44.686;10.842;2023-04-03T05:25:37;9.77;;;6.13;;
23290;SDS011;11814;44.686;10.842;2023-04-03T05:28:03;8.38;;;6.50;;
23290;SDS011;11814;44.686;10.842;2023-04-03T05:30:29;9.27;;;6.72;;
23290;SDS011;11814;44.686;10.842;2023-04-03T05:32:55;10.70;;;7.07;;
23290;SDS011;11814;44.686;10.842;2023-04-03T05:35:20;9.50;;;7.22;;
23290;SDS011;11814;44.686;10.842;2023-04-03T05:37:46;8.68;;;6.82;;
23290;SDS011;11814;44.686;10.842;2023-04-03T05:40:11;9.63;;;6.65;;
23290;SDS011;11814;44.686;10.842;2023-04-03T05:42:37;16.48;;;7.00;;
23290;SDS011;11814;44.686;10.842;2023-04-03T05:45:03;13.68;;;7.25;;
23290;SDS011;11814;44.686;10.842;2023-04-03T05:47:29;16.27;;;6.05;;
23290;SDS011;11814;44.686;10.842;2023-04-03T05:49:55;9.15;;;6.20;;
23290;SDS011;11814;44.686;10.842;2023-04-03T05:54:47;15.50;;;6.75;;
23290;SDS011;11814;44.686;10.842;2023-04-03T05:57:13;9.57;;;5.38;;
23290;SDS011;11814;44.686;10.842;2023-04-03T05:59:43;10.52;;;6.47;;
23290;SDS011;11814;44.686;10.842;2023-04-03T06:02:12;12.80;;;6.63;;
23290;SDS011;11814;44.686;10.842;2023-04-03T06:04:40;8.95;;;5.38;;
23290;SDS011;11814;44.686;10.842;2023-04-03T06:07:06;8.13;;;5.38;;
23290;SDS011;11814;44.686;10.842;2023-04-03T06:09:32;9.23;;;5.60;;
23290;SDS011;11814;44.686;10.842;2023-04-03T06:11:58;9.52;;;6.15;;
23290;SDS011;11814;44.686;10.842;2023-04-03T06:14:25;9.18;;;5.97;;
23290;SDS011;11814;44.686;10.842;2023-04-03T06:16:52;11.93;;;6.55;;
23290;SDS011;11814;44.686;10.842;2023-04-03T06:19:19;8.13;;;6.20;;
23290;SDS011;11814;44.686;10.842;2023-04-03T06:21:45;8.70;;;5.70;;
23290;SDS011;11814;44.686;10.842;2023-04-03T06:24:12;14.30;;;6.15;;
23290;SDS011;11814;44.686;10.842;2023-04-03T06:26:40;8.50;;;5.70;;
23290;SDS011;11814;44.686;10.842;2023-04-03T06:29:06;11.85;;;6.35;;
23290;SDS011;11814;44.686;10.842;2023-04-03T06:31:32;8.52;;;5.40;;
23290;SDS011;11814;44.686;10.842;2023-04-03T06:33:58;10.68;;;5.90;;
23290;SDS011;11814;44.686;10.842;2023-04-03T06:36:23;10.73;;;5.63;;
23290;SDS011;11814;44.686;10.842;2023-04-03T06:38:49;8.35;;;6.05;;
23290;SDS011;11814;44.686;10.842;2023-04-03T06:41:15;10.15;;;6.10;;
23290;SDS011;11814;44.686;10.842;2023-04-03T06:43:42;8.57;;;5.95;;
23290;SDS011;11814;44.686;10.842;2023-04-03T06:46:20;14.02;;;6.10;;
23290;SDS011;11814;44.686;10.842;2023-04-03T06:48:46;14.07;;;7.20;;
23290;SDS011;11814;44.686;10.842;2023-04-03T06:51:20;12.95;;;7.25;;
23290;SDS011;11814;44.686;10.842;2023-04-03T06:53:52;10.23;;;6.63;;
23290;SDS011;11814;44.686;10.842;2023-04-03T06:56:19;14.80;;;8.25;;
23290;SDS011;11814;44.686;10.842;2023-04-03T06:58:46;13.35;;;9.73;;
23290;SDS011;11814;44.686;10.842;2023-04-03T07:01:12;14.70;;;10.07;;
23290;SDS011;11814;44.686;10.842;2023-04-03T07:03:39;12.02;;;9.65;;
23290;SDS011;11814;44.686;10.842;2023-04-03T07:06:06;12.40;;;10.43;;
23290;SDS011;11814;44.686;10.842;2023-04-03T07:08:34;15.90;;;10.40;;
23290;SDS011;11814;44.686;10.842;2023-04-03T07:11:00;14.07;;;10.68;;
23290;SDS011;11814;44.686;10.842;2023-04-03T07:13:26;12.80;;;10.52;;
23290;SDS011;11814;44.686;10.842;2023-04-03T07:15:52;12.52;;;10.07;;
23290;SDS011;11814;44.686;10.842;2023-04-03T07:18:18;16.85;;;10.63;;
23290;SDS011;11814;44.686;10.842;2023-04-03T07:20:44;15.27;;;10.10;;
23290;SDS011;11814;44.686;10.842;2023-04-03T07:23:10;17.73;;;10.73;;
23290;SDS011;11814;44.686;10.842;2023-04-03T07:25:36;14.45;;;9.93;;
23290;SDS011;11814;44.686;10.842;2023-04-03T07:28:02;12.85;;;9.98;;
23290;SDS011;11814;44.686;10.842;2023-04-03T07:30:28;13.23;;;10.68;;
23290;SDS011;11814;44.686;10.842;2023-04-03T07:32:54;18.05;;;11.88;;
23290;SDS011;11814;44.686;10.842;2023-04-03T07:35:20;12.40;;;10.18;;
23290;SDS011;11814;44.686;10.842;2023-04-03T07:37:46;15.75;;;10.27;;
23290;SDS011;11814;44.686;10.842;2023-04-03T07:40:12;15.98;;;10.48;;
23290;SDS011;11814;44.686;10.842;2023-04-03T07:42:37;12.50;;;10.00;;
23290;SDS011;11814;44.686;10.842;2023-04-03T07:45:03;12.98;;;9.65;;
23290;SDS011;11814;44.686;10.842;2023-04-03T07:47:29;15.10;;;9.95;;
23290;SDS011;11814;44.686;10.842;2023-04-03T07:49:56;14.15;;;11.25;;
23290;SDS011;11814;44.686;10.842;2023-04-03T07:52:22;13.45;;;11.23;;
23290;SDS011;11814;44.686;10.842;2023-04-03T07:54:48;17.27;;;11.90;;
23290;SDS011;11814;44.686;10.842;2023-04-03T07:57:14;14.00;;;12.02;;
23290;SDS011;11814;44.686;10.842;2023-04-03T07:59:40;13.18;;;10.68;;
23290;SDS011;11814;44.686;10.842;2023-04-03T08:02:11;12.63;;;10.48;;
23290;SDS011;11814;44.686;10.842;2023-04-03T08:04:37;15.93;;;11.38;;
23290;SDS011;11814;44.686;10.842;2023-04-03T08:07:03;13.57;;;10.82;;
23290;SDS011;11814;44.686;10.842;2023-04-03T08:09:29;13.98;;;11.30;;
23290;SDS011;11814;44.686;10.842;2023-04-03T08:11:56;16.45;;;11.85;;
23290;SDS011;11814;44.686;10.842;2023-04-03T08:14:22;16.10;;;12.32;;
23290;SDS011;11814;44.686;10.842;2023-04-03T08:16:48;18.80;;;11.70;;
23290;SDS011;11814;44.686;10.842;2023-04-03T08:19:14;16.15;;;11.02;;
23290;SDS011;11814;44.686;10.842;2023-04-03T08:21:42;14.43;;;11.32;;
23290;SDS011;11814;44.686;10.842;2023-04-03T08:24:08;14.85;;;11.25;;
23290;SDS011;11814;44.686;10.842;2023-04-03T08:26:34;14.95;;;11.35;;
23290;SDS011;11814;44.686;10.842;2023-04-03T08:28:59;15.65;;;11.13;;
23290;SDS011;11814;44.686;10.842;2023-04-03T08:31:25;15.18;;;10.90;;
23290;SDS011;11814;44.686;10.842;2023-04-03T08:33:51;15.23;;;11.10;;
23290;SDS011;11814;44.686;10.842;2023-04-03T08:36:21;16.90;;;11.85;;
23290;SDS011;11814;44.686;10.842;2023-04-03T08:38:49;17.13;;;10.43;;
23290;SDS011;11814;44.686;10.842;2023-04-03T08:41:19;14.77;;;10.77;;
23290;SDS011;11814;44.686;10.842;2023-04-03T08:46:25;15.60;;;11.52;;
23290;SDS011;11814;44.686;10.842;2023-04-03T08:49:03;15.20;;;11.27;;
23290;SDS011;11814;44.686;10.842;2023-04-03T08:51:34;14.10;;;10.18;;
23290;SDS011;11814;44.686;10.842;2023-04-03T08:54:06;10.05;;;8.00;;
23290;SDS011;11814;44.686;10.842;2023-04-03T08:56:46;14.27;;;8.98;;
23290;SDS011;11814;44.686;10.842;2023-04-03T08:59:12;20.85;;;10.65;;
23290;SDS011;11814;44.686;10.842;2023-04-03T09:01:45;13.70;;;9.48;;
23290;SDS011;11814;44.686;10.842;2023-04-03T09:04:14;8.98;;;5.22;;
23290;SDS011;11814;44.686;10.842;2023-04-03T09:06:42;8.35;;;5.85;;
23290;SDS011;11814;44.686;10.842;2023-04-03T09:09:15;9.43;;;5.10;;
23290;SDS011;11814;44.686;10.842;2023-04-03T09:14:38;8.75;;;5.47;;
23290;SDS011;11814;44.686;10.842;2023-04-03T09:19:57;10.05;;;6.50;;
23290;SDS011;11814;44.686;10.842;2023-04-03T09:22:42;11.45;;;5.93;;
23290;SDS011;11814;44.686;10.842;2023-04-03T09:25:17;9.55;;;6.53;;
23290;SDS011;11814;44.686;10.842;2023-04-03T09:27:44;7.93;;;4.28;;
23290;SDS011;11814;44.686;10.842;2023-04-03T09:30:28;7.00;;;4.00;;
23290;SDS011;11814;44.686;10.842;2023-04-03T09:32:55;7.05;;;4.10;;
23290;SDS011;11814;44.686;10.842;2023-04-03T09:35:26;5.95;;;3.28;;
23290;SDS011;11814;44.686;10.842;2023-04-03T09:38:00;5.30;;;3.20;;
23290;SDS011;11814;44.686;10.842;2023-04-03T09:40:50;7.80;;;3.58;;
23290;SDS011;11814;44.686;10.842;2023-04-03T09:43:32;6.55;;;3.75;;
23290;SDS011;11814;44.686;10.842;2023-04-03T09:46:28;5.85;;;3.40;;
23290;SDS011;11814;44.686;10.842;2023-04-03T09:49:01;6.65;;;2.95;;
23290;SDS011;11814;44.686;10.842;2023-04-03T09:51:30;4.38;;;2.90;;
23290;SDS011;11814;44.686;10.842;2023-04-03T09:53:56;5.28;;;3.33;;
23290;SDS011;11814;44.686;10.842;2023-04-03T09:56:29;10.88;;;3.88;;
23290;SDS011;11814;44.686;10.842;2023-04-03T10:01:29;5.28;;;3.55;;
23290;SDS011;11814;44.686;10.842;2023-04-03T10:09:29;8.93;;;3.58;;
23290;SDS011;11814;44.686;10.842;2023-04-03T10:12:10;6.85;;;3.22;;
23290;SDS011;11814;44.686;10.842;2023-04-03T10:14:40;4.63;;;2.67;;
23290;SDS011;11814;44.686;10.842;2023-04-03T10:38:48;5.43;;;1.85;;
23290;SDS011;11814;44.686;10.842;2023-04-03T10:41:28;3.55;;;1.67;;
23290;SDS011;11814;44.686;10.842;2023-04-03T10:44:15;2.53;;;1.63;;
23290;SDS011;11814;44.686;10.842;2023-04-03T10:57:49;5.38;;;2.15;;
23290;SDS011;11814;44.686;10.842;2023-04-03T11:00:19;3.10;;;1.20;;
23290;SDS011;11814;44.686;10.842;2023-04-03T11:05:25;4.40;;;1.17;;
23290;SDS011;11814;44.686;10.842;2023-04-03T11:11:29;3.22;;;1.10;;
23290;SDS011;11814;44.686;10.842;2023-04-03T11:16:30;3.80;;;1.50;;
23290;SDS011;11814;44.686;10.842;2023-04-03T11:19:01;3.72;;;1.60;;
23290;SDS011;11814;44.686;10.842;2023-04-03T11:21:44;2.78;;;1.45;;
23290;SDS011;11814;44.686;10.842;2023-04-03T11:24:25;4.03;;;1.55;;
23290;SDS011;11814;44.686;10.842;2023-04-03T11:26:55;4.38;;;1.70;;
23290;SDS011;11814;44.686;10.842;2023-04-03T11:29:24;2.40;;;1.63;;
23290;SDS011;11814;44.686;10.842;2023-04-03T11:32:12;6.32;;;2.35;;
23290;SDS011;11814;44.686;10.842;2023-04-03T11:34:49;4.80;;;2.85;;
23290;SDS011;11814;44.686;10.842;2023-04-03T11:37:31;5.30;;;2.95;;
23290;SDS011;11814;44.686;10.842;2023-04-03T11:40:02;7.95;;;3.80;;
23290;SDS011;11814;44.686;10.842;2023-04-03T11:42:38;5.22;;;3.55;;
23290;SDS011;11814;44.686;10.842;2023-04-03T11:50:44;4.93;;;3.10;;
23290;SDS011;11814;44.686;10.842;2023-04-03T11:58:18;8.02;;;3.47;;
23290;SDS011;11814;44.686;10.842;2023-04-03T12:00:56;7.65;;;3.35;;
23290;SDS011;11814;44.686;10.842;2023-04-03T12:11:15;5.60;;;2.50;;
23290;SDS011;11814;44.686;10.842;2023-04-03T12:16:24;4.45;;;2.65;;
23290;SDS011;11814;44.686;10.842;2023-04-03T12:40:19;4.63;;;1.60;;
23290;SDS011;11814;44.686;10.842;2023-04-03T12:46:04;7.22;;;1.95;;
23290;SDS011;11814;44.686;10.842;2023-04-03T12:48:55;4.28;;;1.70;;
23290;SDS011;11814;44.686;10.842;2023-04-03T12:51:28;4.95;;;1.90;;
23290;SDS011;11814;44.686;10.842;2023-04-03T12:57:10;5.38;;;2.30;;
23290;SDS011;11814;44.686;10.842;2023-04-03T12:59:42;7.07;;;2.05;;
23290;SDS011;11814;44.686;10.842;2023-04-03T13:04:53;3.72;;;1.52;;
23290;SDS011;11814;44.686;10.842;2023-04-03T13:07:27;7.40;;;1.90;;
23290;SDS011;11814;44.686;10.842;2023-04-03T13:10:19;4.03;;;1.55;;
23290;SDS011;11814;44.686;10.842;2023-04-03T13:12:48;4.10;;;1.65;;
23290;SDS011;11814;44.686;10.842;2023-04-03T13:15:27;3.58;;;1.75;;
23290;SDS011;11814;44.686;10.842;2023-04-03T13:17:55;5.45;;;1.70;;
23290;SDS011;11814;44.686;10.842;2023-04-03T13:23:45;4.63;;;1.45;;
23290;SDS011;11814;44.686;10.842;2023-04-03T13:26:15;8.43;;;1.77;;
23290;SDS011;11814;44.686;10.842;2023-04-03T13:28:42;3.40;;;1.38;;
23290;SDS011;11814;44.686;10.842;2023-04-03T13:36:31;6.30;;;1.15;;
23290;SDS011;11814;44.686;10.842;2023-04-03T13:39:03;4.90;;;1.50;;
23290;SDS011;11814;44.686;10.842;2023-04-03T13:41:33;4.53;;;1.10;;
23290;SDS011;11814;44.686;10.842;2023-04-03T13:49:18;2.33;;;0.80;;
23290;SDS011;11814;44.686;10.842;2023-04-03T13:51:56;2.70;;;0.40;;
23290;SDS011;11814;44.686;10.842;2023-04-03T13:54:28;2.90;;;0.60;;
23290;SDS011;11814;44.686;10.842;2023-04-03T13:57:03;4.00;;;0.80;;
23290;SDS011;11814;44.686;10.842;2023-04-03T13:59:38;2.80;;;0.50;;
23290;SDS011;11814;44.686;10.842;2023-04-03T14:06:57;10.07;;;0.90;;
23290;SDS011;11814;44.686;10.842;2023-04-03T14:09:24;2.88;;;0.65;;
23290;SDS011;11814;44.686;10.842;2023-04-03T14:11:57;5.18;;;0.70;;
23290;SDS011;11814;44.686;10.842;2023-04-03T14:14:51;2.72;;;0.73;;
23290;SDS011;11814;44.686;10.842;2023-04-03T14:17:18;2.75;;;0.70;;
23290;SDS011;11814;44.686;10.842;2023-04-03T14:19:49;4.65;;;0.90;;
23290;SDS011;11814;44.686;10.842;2023-04-03T14:22:21;3.35;;;0.70;;
23290;SDS011;11814;44.686;10.842;2023-04-03T14:24:50;1.60;;;0.70;;
23290;SDS011;11814;44.686;10.842;2023-04-03T14:27:27;4.47;;;0.57;;
23290;SDS011;11814;44.686;10.842;2023-04-03T14:30:01;4.05;;;0.80;;
23290;SDS011;11814;44.686;10.842;2023-04-03T14:32:28;5.93;;;0.95;;
23290;SDS011;11814;44.686;10.842;2023-04-03T14:34:54;4.63;;;0.90;;
23290;SDS011;11814;44.686;10.842;2023-04-03T14:37:22;3.55;;;0.80;;
23290;SDS011;11814;44.686;10.842;2023-04-03T14:39:50;2.65;;;0.70;;
23290;SDS011;11814;44.686;10.842;2023-04-03T14:42:23;2.95;;;1.17;;
23290;SDS011;11814;44.686;10.842;2023-04-03T14:44:53;3.85;;;0.77;;
23290;SDS011;11814;44.686;10.842;2023-04-03T14:47:20;6.20;;;0.70;;
23290;SDS011;11814;44.686;10.842;2023-04-03T14:49:49;2.05;;;0.75;;
23290;SDS011;11814;44.686;10.842;2023-04-03T14:52:22;3.78;;;0.90;;
23290;SDS011;11814;44.686;10.842;2023-04-03T14:54:53;6.40;;;0.90;;
23290;SDS011;11814;44.686;10.842;2023-04-03T14:57:19;4.20;;;0.85;;
23290;SDS011;11814;44.686;10.842;2023-04-03T14:59:49;4.00;;;0.80;;
23290;SDS011;11814;44.686;10.842;2023-04-03T15:02:31;3.58;;;0.90;;
23290;SDS011;11814;44.686;10.842;2023-04-03T15:05:02;5.82;;;0.80;;
23290;SDS011;11814;44.686;10.842;2023-04-03T15:07:31;5.22;;;1.02;;
23290;SDS011;11814;44.686;10.842;2023-04-03T15:10:15;2.50;;;0.90;;
23290;SDS011;11814;44.686;10.842;2023-04-03T15:12:46;6.50;;;0.90;;
23290;SDS011;11814;44.686;10.842;2023-04-03T15:15:13;4.50;;;1.00;;
23290;SDS011;11814;44.686;10.842;2023-04-03T15:17:40;4.43;;;0.80;;
23290;SDS011;11814;44.686;10.842;2023-04-03T15:20:14;3.47;;;0.80;;
23290;SDS011;11814;44.686;10.842;2023-04-03T15:22:41;8.75;;;1.00;;
23290;SDS011;11814;44.686;10.842;2023-04-03T15:25:08;7.05;;;1.73;;
23290;SDS011;11814;44.686;10.842;2023-04-03T15:27:34;3.72;;;0.80;;
23290;SDS011;11814;44.686;10.842;2023-04-03T15:30:00;3.15;;;0.80;;
23290;SDS011;11814;44.686;10.842;2023-04-03T15:32:26;2.45;;;0.90;;
23290;SDS011;11814;44.686;10.842;2023-04-03T15:34:51;4.63;;;1.30;;
23290;SDS011;11814;44.686;10.842;2023-04-03T15:37:19;3.05;;;0.98;;
23290;SDS011;11814;44.686;10.842;2023-04-03T15:39:45;5.82;;;1.45;;
23290;SDS011;11814;44.686;10.842;2023-04-03T15:42:10;10.30;;;1.15;;
23290;SDS011;11814;44.686;10.842;2023-04-03T15:44:37;4.25;;;0.73;;
23290;SDS011;11814;44.686;10.842;2023-04-03T15:47:03;6.32;;;1.10;;
23290;SDS011;11814;44.686;10.842;2023-04-03T15:49:29;11.73;;;0.90;;
23290;SDS011;11814;44.686;10.842;2023-04-03T15:51:57;4.82;;;1.20;;
23290;SDS011;11814;44.686;10.842;2023-04-03T15:54:23;4.05;;;1.13;;
23290;SDS011;11814;44.686;10.842;2023-04-03T15:56:50;2.15;;;0.85;;
23290;SDS011;11814;44.686;10.842;2023-04-03T15:59:17;5.55;;;0.85;;
23290;SDS011;11814;44.686;10.842;2023-04-03T16:01:43;4.65;;;0.68;;
23290;SDS011;11814;44.686;10.842;2023-04-03T16:04:09;1.20;;;0.57;;
23290;SDS011;11814;44.686;10.842;2023-04-03T16:06:35;4.70;;;0.73;;
23290;SDS011;11814;44.686;10.842;2023-04-03T16:09:02;5.63;;;1.05;;
23290;SDS011;11814;44.686;10.842;2023-04-03T16:11:29;3.28;;;1.05;;
23290;SDS011;11814;44.686;10.842;2023-04-03T16:13:55;3.15;;;0.90;;
23290;SDS011;11814;44.686;10.842;2023-04-03T16:16:21;4.60;;;1.00;;
23290;SDS011;11814;44.686;10.842;2023-04-03T16:18:48;4.90;;;0.90;;
23290;SDS011;11814;44.686;10.842;2023-04-03T16:21:15;2.08;;;0.70;;
23290;SDS011;11814;44.686;10.842;2023-04-03T16:23:41;5.85;;;0.80;;
23290;SDS011;11814;44.686;10.842;2023-04-03T16:26:08;2.55;;;0.85;;
23290;SDS011;11814;44.686;10.842;2023-04-03T16:28:34;5.80;;;1.30;;
23290;SDS011;11814;44.686;10.842;2023-04-03T16:31:00;2.95;;;1.02;;
23290;SDS011;11814;44.686;10.842;2023-04-03T16:33:27;1.90;;;0.68;;
23290;SDS011;11814;44.686;10.842;2023-04-03T16:35:55;5.70;;;0.82;;
23290;SDS011;11814;44.686;10.842;2023-04-03T16:38:20;2.97;;;0.55;;
23290;SDS011;11814;44.686;10.842;2023-04-03T16:40:47;4.95;;;0.90;;
23290;SDS011;11814;44.686;10.842;2023-04-03T16:43:14;5.20;;;0.90;;
23290;SDS011;11814;44.686;10.842;2023-04-03T16:45:40;4.15;;;0.80;;
23290;SDS011;11814;44.686;10.842;2023-04-03T16:48:07;2.28;;;1.05;;
23290;SDS011;11814;44.686;10.842;2023-04-03T16:50:32;3.17;;;0.73;;